Murray, Kentucky
Current Conditions -  °F | °C
As of 12:15 PM on Tuesday 21 Oct 2014 (Local Time) from KCEY Reporting Station
Clear Clear  
Wind Chill: 68°   Ceiling: Unl
Heat Index: 68°   Visibility: 10mi
Dew Point: 46°   Wind: 14mph
Humidity: 46%   Direction: 350°N
Pressure: 30.09"   Gusts: 17mph
Location:  36.61°N, 88.3°W
Report Text: KCEY 211715Z AUTO 35012G15KT 10SM CLR 20/08 A3009 RMK AO1
Loading
Personal Weather Stations






























Interactive Weather Map New forecast layout! Learn more

10-Day Weather Forecast

Advertisements
Track Severe Weather on mobile